world map with VVCR marked

VVCR - Airport

This information may not be accurate or current and is not valid for navigation or flight planning. No warranty of fitness for any purpose is made or implied.

flag of Vietnam

Donate via PayPal

Additional information is available on the NEW Great Circle Mapper

Location
City:  Nha Trang, Vietnam
Near (Alt.):Cam Ranh
Name:Cam Ranh International Airport
ICAO / IATA:VVCR / CXR

Details
Type:Airport (Aerodrome, Airfield)
Use:Public/Civil
Latitude:11°59'53"N (11.998153)
Longitude:109°13'10"E (109.219372)
Datum:WGS 1984
Elevation:40 ft (12 m)
Runways:1
Longest:10000 × 150 ft (3048 × 45.5 m)

Time
Timezone:UTC+7 (DST+9)
Local Time:

Weather
METAR:VVCR  200630Z 07013KT 9999 FEW013 31/24 Q1012 NOSIG
TAF:VVCR  200500Z 2006/2106 06011KT 9999 SCT015 SCT040

Related Locations
Nearby:
Farthest:SPNU: 12442 mi / 20024 km
Manu [Manu Airport], MDD, PE

Find:

   beyond  
but within

Other Information
Maps:
Sources:

  


 


Great Circle Mapper   Great Circle Mapper
Great Circle Mapper FAQ   Great Circle Mapper FAQ
  Karl's Home Page
KLSē   KLSē Home
   GC on Facebook
Airlines of the World   Airlines of the World
Donate via PayPal


Copyright © 2004-2018, Karl L. Swartz. All rights reserved.
All trademarks mentioned herein belong to their respective owners.

Please see credits for attribution and copyright information.

Karl Swartz <karl@kls2.com>
  Powered by FreeBSD
Valid HTML 4.01!
Labeled with ICRA
hCard Microformat
Geo Microformat